createdAt,value
2022-09-11T00:01:15.889Z,359.73
2022-09-11T00:03:43.993Z,357.65
2022-09-11T00:06:14.276Z,349.85
2022-09-11T00:08:42.266Z,367.33
2022-09-11T00:11:12.386Z,379.27
2022-09-11T00:13:40.455Z,371.60
2022-09-11T00:16:17.941Z,365.52
2022-09-11T00:18:44.727Z,377.35
2022-09-11T00:21:11.304Z,371.52
2022-09-11T00:23:37.862Z,373.80
2022-09-11T00:26:05.081Z,367.87
2022-09-11T00:28:31.649Z,367.15
2022-09-11T00:31:12.613Z,361.57
2022-09-11T00:33:40.175Z,358.25
2022-09-11T00:36:13.209Z,356.45
2022-09-11T00:38:40.306Z,366.17
2022-09-11T00:41:12.614Z,367.02
2022-09-11T00:44:02.669Z,360.63
2022-09-11T00:46:54.661Z,359.67
2022-09-11T00:49:32.569Z,359.33
2022-09-11T00:52:27.281Z,356.65
2022-09-11T00:54:59.879Z,347.23
2022-09-11T00:57:30.422Z,351.08
2022-09-11T00:59:59.448Z,350.87
2022-09-11T01:02:28.322Z,358.30
2022-09-11T01:04:57.246Z,355.10
2022-09-11T01:07:26.521Z,350.00
2022-09-11T01:09:54.160Z,354.98
2022-09-11T01:12:39.093Z,356.77
2022-09-11T01:15:30.206Z,357.13
2022-09-11T01:18:26.877Z,351.95
2022-09-11T01:20:56.018Z,349.67
2022-09-11T01:23:56.627Z,355.40
2022-09-11T01:26:36.884Z,364.45
2022-09-11T01:29:12.424Z,354.10
2022-09-11T01:31:50.022Z,350.80
2022-09-11T01:34:27.077Z,348.67
2022-09-11T01:37:01.027Z,346.65
2022-09-11T01:39:33.785Z,349.67
2022-09-11T01:42:05.925Z,353.80
2022-09-11T01:44:41.630Z,361.60
2022-09-11T01:47:11.861Z,369.52
2022-09-11T01:49:45.740Z,371.35
2022-09-11T01:52:18.512Z,372.25
2022-09-11T01:55:01.305Z,380.23
2022-09-11T01:57:42.742Z,378.63
2022-09-11T02:00:13.442Z,376.60
2022-09-11T02:02:47.247Z,379.88
2022-09-11T02:05:18.407Z,380.88
2022-09-11T02:07:55.950Z,382.50
2022-09-11T02:10:32.898Z,383.70
2022-09-11T02:13:11.394Z,378.42
2022-09-11T02:15:46.304Z,374.55
2022-09-11T02:18:18.798Z,385.23
2022-09-11T02:20:47.530Z,385.15
2022-09-11T02:23:15.551Z,373.10
2022-09-11T02:25:42.215Z,370.42
2022-09-11T02:28:09.935Z,367.40
2022-09-11T02:30:38.565Z,363.40
2022-09-11T02:33:26.374Z,359.67
2022-09-11T02:35:59.527Z,360.13
2022-09-11T02:38:39.932Z,372.40
2022-09-11T02:41:24.008Z,363.67
2022-09-11T02:44:06.997Z,372.77
2022-09-11T02:47:15.195Z,373.05
2022-09-11T02:50:21.990Z,374.30
2022-09-11T02:53:11.617Z,382.58
2022-09-11T02:55:56.604Z,376.25
2022-09-11T02:58:29.672Z,380.52
2022-09-11T03:01:01.750Z,379.87
2022-09-11T03:03:38.534Z,374.60
2022-09-11T03:06:06.243Z,381.08
2022-09-11T03:08:32.866Z,395.83
2022-09-11T03:11:00.106Z,393.17
2022-09-11T03:13:27.028Z,403.17
2022-09-11T03:15:54.061Z,392.60
2022-09-11T03:18:20.627Z,398.87
2022-09-11T03:20:47.329Z,394.08
2022-09-11T03:23:14.441Z,394.05
2022-09-11T03:25:41.348Z,393.33
2022-09-11T03:28:08.959Z,385.35
2022-09-11T03:30:35.684Z,387.30
2022-09-11T03:33:02.377Z,387.40
2022-09-11T03:35:29.146Z,368.10
2022-09-11T03:37:55.738Z,385.63
2022-09-11T03:40:22.417Z,385.25
2022-09-11T03:42:49.068Z,379.30
2022-09-11T03:45:17.216Z,382.45
2022-09-11T03:47:43.800Z,379.13
2022-09-11T03:50:11.551Z,376.37
2022-09-11T03:52:39.555Z,372.50
2022-09-11T03:55:07.025Z,366.90
2022-09-11T03:57:34.109Z,373.25
2022-09-11T04:00:01.528Z,380.90
2022-09-11T04:02:33.733Z,376.67
2022-09-11T04:05:00.393Z,379.33
2022-09-11T04:07:27.297Z,379.77
2022-09-11T04:09:54.214Z,377.35
2022-09-11T04:12:20.797Z,387.27
2022-09-11T04:14:48.235Z,386.33
2022-09-11T04:17:17.152Z,391.83
2022-09-11T04:19:43.765Z,393.08
2022-09-11T04:22:10.502Z,382.50
2022-09-11T04:24:40.054Z,381.48
2022-09-11T04:27:06.810Z,383.40
2022-09-11T04:29:33.912Z,370.58
2022-09-11T04:32:01.463Z,367.42
2022-09-11T04:34:31.244Z,378.40
2022-09-11T04:36:57.904Z,372.23
2022-09-11T04:39:26.021Z,370.65
2022-09-11T04:41:52.648Z,371.80
2022-09-11T04:44:21.534Z,361.45
2022-09-11T04:46:48.144Z,357.98
2022-09-11T04:49:15.340Z,355.75
2022-09-11T04:51:45.180Z,359.45
2022-09-11T04:54:16.505Z,361.42
2022-09-11T04:56:43.301Z,367.20
2022-09-11T04:59:16.094Z,366.77
2022-09-11T05:01:48.775Z,361.25
2022-09-11T05:04:21.702Z,352.48
2022-09-11T05:06:51.117Z,359.75
2022-09-11T05:09:18.874Z,352.58
2022-09-11T05:11:47.145Z,356.25
2022-09-11T05:14:15.225Z,366.67
2022-09-11T05:16:44.994Z,360.95
2022-09-11T05:19:12.571Z,358.08
2022-09-11T05:21:39.801Z,355.15
2022-09-11T05:24:06.373Z,352.87
2022-09-11T05:26:36.850Z,353.85
2022-09-11T05:29:11.713Z,354.00
2022-09-11T05:31:44.822Z,355.20
2022-09-11T05:34:14.135Z,351.13
2022-09-11T05:36:41.456Z,358.73
2022-09-11T05:39:09.420Z,359.13
2022-09-11T05:41:36.883Z,352.33
2022-09-11T05:44:06.076Z,358.40
2022-09-11T05:46:36.934Z,355.55
2022-09-11T05:49:03.801Z,355.38
2022-09-11T05:51:30.466Z,359.98
2022-09-11T05:53:58.617Z,347.50
2022-09-11T05:56:26.498Z,351.47
2022-09-11T05:58:58.633Z,341.23
2022-09-11T06:01:33.375Z,340.05
2022-09-11T06:04:12.262Z,351.20
2022-09-11T06:06:41.443Z,342.58
2022-09-11T06:09:08.182Z,342.20
2022-09-11T06:11:35.058Z,354.02
2022-09-11T06:14:02.509Z,347.67
2022-09-11T06:16:31.435Z,354.97
2022-09-11T06:19:05.661Z,351.15
2022-09-11T06:21:32.327Z,362.20
2022-09-11T06:24:08.172Z,364.20
2022-09-11T06:26:35.463Z,357.60
2022-09-11T06:29:02.970Z,369.10
2022-09-11T06:31:30.451Z,373.67
2022-09-11T06:33:57.814Z,360.65
2022-09-11T06:36:32.710Z,365.02
2022-09-11T06:39:03.139Z,371.63
2022-09-11T06:41:30.805Z,359.80
2022-09-11T06:44:03.094Z,348.02
2022-09-11T06:46:30.922Z,340.65
2022-09-11T06:48:59.260Z,345.35
2022-09-11T06:51:28.163Z,342.60
2022-09-11T06:53:57.989Z,344.70
2022-09-11T06:56:28.189Z,329.50
2022-09-11T06:58:56.159Z,325.60
2022-09-11T07:01:30.788Z,327.48
2022-09-11T07:04:03.037Z,325.20
2022-09-11T07:06:32.392Z,334.13
2022-09-11T07:09:02.672Z,312.47
2022-09-11T07:11:44.823Z,300.48
2022-09-11T07:14:11.605Z,307.27
2022-09-11T07:16:41.166Z,309.83
2022-09-11T07:19:11.162Z,311.15
2022-09-11T07:21:41.838Z,299.55
2022-09-11T07:24:09.250Z,309.73
2022-09-11T07:26:39.809Z,300.25
2022-09-11T07:29:15.715Z,303.15
2022-09-11T07:31:52.402Z,291.75
2022-09-11T07:34:19.212Z,286.67
2022-09-11T07:36:51.726Z,273.08
2022-09-11T07:39:19.532Z,254.57
2022-09-11T07:41:55.587Z,264.40
2022-09-11T07:44:30.037Z,270.50
2022-09-11T07:46:57.686Z,273.33
2022-09-11T07:49:24.727Z,262.38
2022-09-11T07:51:52.738Z,258.67
2022-09-11T07:54:29.090Z,264.30
2022-09-11T07:57:07.988Z,252.52
2022-09-11T07:59:34.894Z,275.70
2022-09-11T08:02:03.013Z,248.10
2022-09-11T08:04:31.220Z,239.88
2022-09-11T08:06:57.955Z,239.40
2022-09-11T08:09:33.465Z,247.95
2022-09-11T08:12:03.729Z,228.88
2022-09-11T08:14:32.586Z,239.05
2022-09-11T08:17:08.621Z,253.27
2022-09-11T08:19:37.117Z,278.35
2022-09-11T08:22:04.007Z,272.95
2022-09-11T08:24:35.728Z,299.08
2022-09-11T08:27:06.075Z,292.33
2022-09-11T08:29:35.902Z,260.05
2022-09-11T08:32:02.673Z,257.77
2022-09-11T08:34:31.866Z,251.38
2022-09-11T08:36:58.810Z,264.65
2022-09-11T08:39:27.597Z,278.73
2022-09-11T08:42:06.003Z,265.35
2022-09-11T08:44:48.807Z,260.02
2022-09-11T08:47:31.178Z,247.47
2022-09-11T08:50:07.173Z,239.30
2022-09-11T08:52:35.945Z,231.95
2022-09-11T08:55:03.453Z,242.30
2022-09-11T08:57:33.493Z,250.50
2022-09-11T09:00:20.539Z,242.73
2022-09-11T09:03:30.539Z,235.05
2022-09-11T09:06:11.844Z,267.23
2022-09-11T09:09:08.786Z,293.55
2022-09-11T09:12:05.460Z,285.30
2022-09-11T09:15:17.164Z,269.77
2022-09-11T09:17:57.048Z,273.30
2022-09-11T09:20:33.822Z,250.25
2022-09-11T09:23:23.613Z,228.43
2022-09-11T09:25:57.137Z,224.52
2022-09-11T09:28:31.332Z,210.32
2022-09-11T09:31:07.977Z,228.57
2022-09-11T09:33:35.292Z,211.90
2022-09-11T09:36:16.759Z,207.73
2022-09-11T09:38:46.541Z,189.23
2022-09-11T09:41:22.758Z,214.45
2022-09-11T09:44:19.614Z,221.90
2022-09-11T09:46:54.163Z,227.57
2022-09-11T09:49:31.109Z,224.50
2022-09-11T09:52:04.060Z,281.65
2022-09-11T09:54:37.167Z,320.13
2022-09-11T09:57:07.760Z,332.25
2022-09-11T09:59:48.288Z,345.90
2022-09-11T10:02:39.477Z,335.42
2022-09-11T10:05:27.617Z,354.67
2022-09-11T10:07:57.734Z,334.55
2022-09-11T10:10:38.636Z,346.65
2022-09-11T10:13:25.003Z,336.92
2022-09-11T10:15:54.023Z,354.50
2022-09-11T10:18:33.183Z,353.33
2022-09-11T10:21:12.091Z,351.67
2022-09-11T10:24:01.780Z,328.60
2022-09-11T10:26:49.781Z,318.50
2022-09-11T10:29:24.280Z,323.17
2022-09-11T10:31:53.107Z,320.48
2022-09-11T10:34:22.310Z,299.97
2022-09-11T10:37:16.507Z,310.30
2022-09-11T10:39:47.054Z,289.17
2022-09-11T10:42:16.897Z,303.60
2022-09-11T10:44:49.207Z,321.52
2022-09-11T10:47:17.572Z,327.48
2022-09-11T10:49:45.084Z,322.23
2022-09-11T10:52:11.661Z,308.65
2022-09-11T10:54:54.099Z,296.67
2022-09-11T10:57:45.349Z,271.58
2022-09-11T11:00:22.670Z,269.40
2022-09-11T11:02:53.263Z,283.67
2022-09-11T11:05:31.878Z,298.40
2022-09-11T11:08:09.515Z,279.27
2022-09-11T11:11:03.748Z,281.42
2022-09-11T11:14:01.925Z,252.02
2022-09-11T11:16:48.687Z,199.85
2022-09-11T11:19:58.808Z,191.85
2022-09-11T11:22:28.678Z,207.93
2022-09-11T11:25:30.287Z,203.52
2022-09-11T11:28:20.251Z,194.18
2022-09-11T11:31:35.787Z,132.38
2022-09-11T11:34:15.676Z,23.80
2022-09-11T11:36:48.158Z,4.00
2022-09-11T11:39:23.193Z,3.88
2022-09-11T11:42:12.825Z,2.35
2022-09-11T11:44:44.700Z,2.63
2022-09-11T11:47:12.646Z,2.90
2022-09-11T11:50:06.717Z,2.30
2022-09-11T11:52:34.391Z,4.05
2022-09-11T11:55:18.123Z,3.43
2022-09-11T11:57:54.119Z,3.25
2022-09-11T12:00:21.503Z,3.38
2022-09-11T12:03:18.288Z,3.42
2022-09-11T12:05:44.942Z,2.75
2022-09-11T12:08:16.642Z,3.30
2022-09-11T12:10:55.979Z,2.97
2022-09-11T12:13:29.928Z,3.30
2022-09-11T12:16:14.935Z,3.45
2022-09-11T12:19:00.759Z,2.60
2022-09-11T12:21:32.539Z,2.83
2022-09-11T12:23:59.905Z,3.30
2022-09-11T12:26:32.138Z,2.60
2022-09-11T12:29:17.625Z,2.97
2022-09-11T12:32:18.954Z,2.80
2022-09-11T12:34:45.979Z,2.83
2022-09-11T12:37:26.025Z,2.70
2022-09-11T12:40:00.878Z,2.57
2022-09-11T12:42:30.402Z,2.40
2022-09-11T12:44:59.679Z,6.25
2022-09-11T12:47:42.630Z,2.70
2022-09-11T12:50:12.184Z,2.42
2022-09-11T12:52:46.486Z,2.63
2022-09-11T12:55:35.910Z,3.60
2022-09-11T12:58:07.432Z,3.80
2022-09-11T13:00:43.737Z,5.65
2022-09-11T13:03:21.501Z,3.30
2022-09-11T13:05:56.907Z,4.38
2022-09-11T13:08:27.888Z,3.42
2022-09-11T13:11:40.816Z,3.10
2022-09-11T13:14:28.090Z,4.00
2022-09-11T13:16:59.805Z,3.80
2022-09-11T13:19:37.100Z,3.58
2022-09-11T13:22:22.007Z,4.80
2022-09-11T13:24:51.478Z,4.85
2022-09-11T13:27:29.351Z,8.05
2022-09-11T13:29:58.159Z,5.43
2022-09-11T13:32:26.783Z,12.25
2022-09-11T13:35:01.968Z,5.82
2022-09-11T13:37:46.849Z,8.05
2022-09-11T13:40:27.551Z,8.15
2022-09-11T13:42:54.395Z,11.40
2022-09-11T13:45:28.625Z,4.75
2022-09-11T13:47:57.493Z,7.50
2022-09-11T13:50:32.268Z,21.35
2022-09-11T13:53:01.895Z,18.02
2022-09-11T13:55:30.122Z,31.20
2022-09-11T13:58:03.367Z,33.38
2022-09-11T14:00:44.980Z,36.72
2022-09-11T14:03:20.374Z,32.28
2022-09-11T14:05:53.936Z,14.27
2022-09-11T14:08:36.884Z,31.27
2022-09-11T14:11:21.254Z,29.98
2022-09-11T14:14:09.793Z,24.57
2022-09-11T14:16:47.970Z,10.93
2022-09-11T14:19:20.341Z,18.70
2022-09-11T14:21:51.307Z,16.27
2022-09-11T14:24:27.424Z,15.45
2022-09-11T14:26:58.228Z,14.75
2022-09-11T14:29:32.110Z,10.00
2022-09-11T14:32:36.998Z,18.08
2022-09-11T14:35:07.178Z,9.15
2022-09-11T14:37:40.247Z,27.48
2022-09-11T14:40:14.886Z,10.73
2022-09-11T14:42:42.952Z,22.63
2022-09-11T14:45:21.472Z,24.42
2022-09-11T14:47:49.692Z,25.90
2022-09-11T14:50:16.831Z,50.88
2022-09-11T14:52:46.777Z,83.50
2022-09-11T14:55:18.442Z,135.93
2022-09-11T14:57:51.408Z,162.52
2022-09-11T15:00:19.293Z,203.95
2022-09-11T15:02:46.509Z,229.75
2022-09-11T15:05:16.506Z,213.80
2022-09-11T15:07:45.485Z,243.57
2022-09-11T15:10:13.578Z,238.20
2022-09-11T15:12:40.217Z,240.27
2022-09-11T15:15:07.364Z,259.77
2022-09-11T15:17:36.274Z,272.52
2022-09-11T15:20:09.423Z,283.98
2022-09-11T15:22:38.288Z,253.85
2022-09-11T15:25:05.611Z,266.85
2022-09-11T15:27:32.318Z,251.10
2022-09-11T15:30:04.275Z,264.20
2022-09-11T15:32:31.415Z,251.10
2022-09-11T15:34:58.081Z,245.18
2022-09-11T15:37:25.424Z,237.95
2022-09-11T15:39:52.287Z,237.15
2022-09-11T15:42:19.323Z,229.82
2022-09-11T15:44:48.141Z,199.95
2022-09-11T15:47:14.830Z,188.82
2022-09-11T15:49:44.428Z,191.90
2022-09-11T15:52:11.288Z,184.25
2022-09-11T15:54:37.959Z,205.13
2022-09-11T15:57:04.540Z,225.52
2022-09-11T15:59:31.105Z,233.50
2022-09-11T16:01:59.154Z,239.63
2022-09-11T16:04:30.904Z,269.17
2022-09-11T16:06:57.452Z,275.03
2022-09-11T16:09:29.438Z,273.58
2022-09-11T16:11:56.910Z,276.38
2022-09-11T16:14:27.246Z,284.45
2022-09-11T16:16:58.407Z,266.23
2022-09-11T16:19:28.128Z,278.02
2022-09-11T16:22:00.766Z,278.52
2022-09-11T16:24:29.232Z,277.52
2022-09-11T16:26:56.111Z,272.42
2022-09-11T16:29:43.999Z,284.38
2022-09-11T16:32:28.080Z,273.75
2022-09-11T16:34:57.006Z,293.57
2022-09-11T16:37:23.978Z,294.63
2022-09-11T16:39:50.841Z,270.48
2022-09-11T16:42:21.729Z,261.17
2022-09-11T16:44:49.667Z,283.23
2022-09-11T16:47:16.813Z,248.60
2022-09-11T16:52:34.503Z,260.90
2022-09-11T16:55:01.534Z,240.65
2022-09-11T16:57:28.193Z,221.33
2022-09-11T16:59:54.872Z,239.90
2022-09-11T17:02:24.338Z,217.63
2022-09-11T17:04:51.016Z,219.30
2022-09-11T17:07:20.036Z,223.67
2022-09-11T17:09:49.195Z,232.80
2022-09-11T17:12:17.945Z,242.57
2022-09-11T17:14:46.462Z,241.48
2022-09-11T17:17:13.282Z,252.10
2022-09-11T17:19:42.935Z,265.70
2022-09-11T17:22:10.560Z,252.10
2022-09-11T17:24:38.754Z,286.23
2022-09-11T17:27:05.574Z,286.73
2022-09-11T17:29:44.587Z,281.70
2022-09-11T17:32:27.218Z,284.15
2022-09-11T17:34:55.063Z,275.48
2022-09-11T17:37:24.162Z,294.52
2022-09-11T17:39:50.778Z,303.38
2022-09-11T17:42:20.577Z,260.27
2022-09-11T17:44:47.894Z,278.77
2022-09-11T17:47:14.949Z,282.38
2022-09-11T17:49:42.956Z,270.13
2022-09-11T17:52:09.725Z,280.60
2022-09-11T17:54:39.588Z,282.05
2022-09-11T17:57:08.833Z,305.50
2022-09-11T17:59:39.204Z,290.07
2022-09-11T18:02:06.234Z,286.00
2022-09-11T18:04:32.993Z,293.40
2022-09-11T18:06:59.599Z,289.70
2022-09-11T18:09:26.241Z,290.30
2022-09-11T18:11:54.578Z,300.97
2022-09-11T18:14:21.582Z,276.88
2022-09-11T18:16:48.223Z,279.13
2022-09-11T18:19:16.313Z,296.92
2022-09-11T18:21:45.614Z,290.73
2022-09-11T18:24:19.887Z,293.33
2022-09-11T18:26:49.936Z,291.00
2022-09-11T18:29:19.970Z,268.02
2022-09-11T18:31:50.149Z,283.67
2022-09-11T18:34:22.600Z,274.77
2022-09-11T18:36:49.559Z,275.17
2022-09-11T18:39:17.989Z,296.15
2022-09-11T18:41:45.787Z,301.13
2022-09-11T18:44:19.273Z,308.00
2022-09-11T18:46:46.879Z,296.42
2022-09-11T18:49:15.146Z,296.55
2022-09-11T18:51:42.400Z,284.77
2022-09-11T18:54:18.221Z,294.88
2022-09-11T18:56:45.216Z,291.42
2022-09-11T18:59:12.890Z,296.70
2022-09-11T19:01:41.184Z,298.25
2022-09-11T19:04:10.357Z,296.50
2022-09-11T19:06:38.686Z,312.98
2022-09-11T19:09:07.471Z,325.20
2022-09-11T19:11:34.127Z,309.95
2022-09-11T19:14:07.121Z,315.20
2022-09-11T19:16:34.003Z,321.20
2022-09-11T19:19:00.638Z,302.48
2022-09-11T19:21:27.866Z,318.92
2022-09-11T19:24:00.330Z,296.13
2022-09-11T19:26:34.991Z,310.52
2022-09-11T19:29:01.891Z,289.25
2022-09-11T19:31:29.708Z,290.60
2022-09-11T19:33:57.915Z,285.17
2022-09-11T19:36:26.845Z,304.08
2022-09-11T19:38:55.940Z,318.57
2022-09-11T19:41:24.361Z,313.35
2022-09-11T19:43:50.978Z,325.52
2022-09-11T19:46:24.095Z,320.55
2022-09-11T19:48:53.377Z,310.75
2022-09-11T19:51:22.966Z,320.77
2022-09-11T19:53:51.138Z,321.58
2022-09-11T19:56:19.117Z,320.63
2022-09-11T19:58:45.690Z,322.08
2022-09-11T20:01:18.404Z,341.08
2022-09-11T20:03:46.121Z,353.20
2022-09-11T20:06:16.387Z,342.40
2022-09-11T20:08:45.491Z,341.60
2022-09-11T20:11:21.250Z,332.25
2022-09-11T20:13:48.422Z,338.10
2022-09-11T20:16:18.123Z,337.38
2022-09-11T20:18:45.028Z,341.17
2022-09-11T20:21:15.585Z,341.00
2022-09-11T20:23:44.164Z,328.45
2022-09-11T20:26:21.386Z,342.00
2022-09-11T20:28:53.486Z,338.20
2022-09-11T20:31:24.241Z,325.15
2022-09-11T20:33:54.138Z,340.75
2022-09-11T20:36:21.591Z,331.25
2022-09-11T20:38:52.513Z,325.38
2022-09-11T20:41:20.242Z,335.00
2022-09-11T20:43:47.058Z,331.55
2022-09-11T20:46:13.725Z,346.15
2022-09-11T20:48:40.638Z,345.38
2022-09-11T20:51:10.120Z,341.52
2022-09-11T20:53:38.416Z,349.77
2022-09-11T20:56:11.036Z,347.70
2022-09-11T20:58:38.750Z,366.75
2022-09-11T21:01:06.887Z,346.15
2022-09-11T21:03:33.578Z,352.73
2022-09-11T21:06:09.542Z,345.95
2022-09-11T21:08:36.404Z,354.85
2022-09-11T21:11:06.956Z,340.38
2022-09-11T21:13:38.627Z,352.38
2022-09-11T21:16:07.682Z,341.20
2022-09-11T21:18:34.882Z,343.58
2022-09-11T21:21:01.537Z,350.80
2022-09-11T21:23:28.287Z,366.50
2022-09-11T21:25:54.953Z,345.77
2022-09-11T21:28:22.006Z,348.10
2022-09-11T21:30:48.686Z,367.50
2022-09-11T21:33:15.318Z,367.90
2022-09-11T21:35:42.021Z,362.52
2022-09-11T21:38:08.783Z,385.20
2022-09-11T21:40:35.353Z,367.00
2022-09-11T21:43:03.105Z,359.67
2022-09-11T21:45:29.632Z,367.10
2022-09-11T21:47:57.558Z,370.10
2022-09-11T21:50:24.112Z,359.63
2022-09-11T21:52:50.708Z,348.95
2022-09-11T21:55:17.506Z,361.67
2022-09-11T21:57:44.597Z,357.80
2022-09-11T22:00:12.826Z,362.08
2022-09-11T22:02:42.266Z,361.57
2022-09-11T22:05:09.511Z,353.20
2022-09-11T22:07:36.446Z,358.20
2022-09-11T22:10:04.947Z,369.90
2022-09-11T22:12:31.607Z,374.98
2022-09-11T22:14:58.491Z,375.05
2022-09-11T22:17:25.075Z,375.42
2022-09-11T22:19:51.614Z,381.42
2022-09-11T22:22:18.569Z,361.35
2022-09-11T22:24:45.113Z,372.58
2022-09-11T22:27:11.746Z,390.83
2022-09-11T22:29:38.371Z,385.75
2022-09-11T22:32:05.870Z,389.30
2022-09-11T22:34:34.781Z,400.80
2022-09-11T22:37:08.959Z,404.80
2022-09-11T22:39:35.692Z,398.30
2022-09-11T22:42:04.447Z,391.07
2022-09-11T22:44:31.046Z,391.20
2022-09-11T22:46:57.651Z,400.98
2022-09-11T22:49:24.596Z,409.45
2022-09-11T22:51:51.268Z,415.42
2022-09-11T22:54:18.006Z,405.20
2022-09-11T22:56:44.781Z,405.58
2022-09-11T22:59:11.278Z,405.23
2022-09-11T23:01:38.155Z,417.65
2022-09-11T23:04:05.067Z,410.27
2022-09-11T23:06:50.051Z,401.40
2022-09-11T23:09:19.469Z,394.05
2022-09-11T23:11:46.700Z,395.02
2022-09-11T23:14:14.774Z,383.98
2022-09-11T23:16:42.655Z,386.17
2022-09-11T23:19:12.824Z,379.17
2022-09-11T23:21:39.461Z,367.77
2022-09-11T23:24:06.261Z,382.52
2022-09-11T23:26:32.865Z,381.98
2022-09-11T23:28:59.454Z,396.40
2022-09-11T23:31:30.461Z,388.30
2022-09-11T23:33:59.498Z,394.40
2022-09-11T23:36:26.686Z,393.17
2022-09-11T23:38:53.264Z,385.75
2022-09-11T23:41:20.474Z,390.77
2022-09-11T23:43:47.415Z,391.60
2022-09-11T23:46:15.258Z,391.30
2022-09-11T23:48:42.217Z,392.25
2022-09-11T23:51:10.388Z,387.00
2022-09-11T23:53:40.821Z,385.42
2022-09-11T23:56:07.785Z,396.35
2022-09-11T23:58:39.226Z,391.52
